Time;durP1;ratioP1;P1;durP2;ratioP2;P2;SDS_P1;SDS_P2;PMS_P1;PMS_P2;Temp;Humidity;BMP_temperature;BMP_pressure;BME280_temperature;BME280_humidity;BME280_pressure;Samples;Min_cycle;Max_cycle;Signal;HPM_P1;HPM_P2
2023/01/12 00:02:10;;;;;;;5.95;2.55;;;;;;;15.79;59.41;100707.38;5013228;28;20088;-62
2023/01/12 00:04:36;;;;;;;4.68;2.80;;;;;;;15.77;59.35;100699.50;5014428;28;20022;-63
2023/01/12 00:07:05;;;;;;;5.63;2.35;;;;;;;15.77;59.44;100690.72;5012587;28;20057;-62
2023/01/12 00:09:30;;;;;;;6.05;2.80;;;;;;;15.74;59.45;100691.66;5014284;28;20057;-62
2023/01/12 00:11:55;;;;;;;7.28;2.63;;;;;;;15.75;59.31;100693.41;5016343;28;20037;-62
2023/01/12 00:14:21;;;;;;;6.55;2.75;;;;;;;15.74;59.31;100694.28;5034541;28;20041;-62
2023/01/12 00:16:48;;;;;;;6.10;2.72;;;;;;;15.75;59.50;100687.28;5033600;28;20128;-62
2023/01/12 00:19:14;;;;;;;6.20;2.55;;;;;;;15.75;59.56;100685.53;5033556;28;20029;-62
2023/01/12 00:24:16;;;;;;;5.93;2.58;;;;;;;15.74;59.53;100673.22;5013438;28;20061;-62
2023/01/12 00:26:42;;;;;;;7.50;2.97;;;;;;;15.76;59.52;100670.59;5014921;28;20045;-62
2023/01/12 00:29:07;;;;;;;5.95;2.67;;;;;;;15.76;59.51;100683.75;5015177;28;20051;-62
2023/01/12 00:31:33;;;;;;;6.93;2.60;;;;;;;15.72;59.45;100675.03;5014942;28;20435;-62
2023/01/12 00:33:58;;;;;;;6.50;2.78;;;;;;;15.72;59.54;100672.41;5033654;28;20104;-62
2023/01/12 00:36:24;;;;;;;5.72;2.75;;;;;;;15.73;59.45;100660.13;5034320;28;20467;-62
2023/01/12 00:38:49;;;;;;;6.25;2.40;;;;;;;15.74;59.22;100649.56;5033712;28;20057;-62
2023/01/12 00:45:20;;;;;;;6.80;2.63;;;;;;;15.71;59.57;100641.75;5031850;28;20060;-62
2023/01/12 00:46:43;;;;;;;5.85;2.50;;;;;;;15.73;59.46;100642.56;5013277;28;20414;-62
2023/01/12 00:49:09;;;;;;;8.85;2.97;;;;;;;15.73;59.31;100639.94;5027613;28;20038;-62
2023/01/12 00:51:34;;;;;;;4.35;2.30;;;;;;;15.74;59.19;100641.66;5032927;28;20114;-62
2023/01/12 00:54:03;;;;;;;4.55;2.20;;;;;;;15.71;59.41;100649.63;5014595;28;20079;-62
2023/01/12 00:56:29;;;;;;;6.82;2.67;;;;;;;15.72;59.29;100646.09;5012853;28;20014;-62
2023/01/12 00:58:55;;;;;;;5.63;2.60;;;;;;;15.71;59.49;100647.00;5013355;28;20116;-62
2023/01/12 01:01:20;;;;;;;6.72;2.83;;;;;;;15.68;59.58;100649.69;5013994;28;20495;-62
2023/01/12 01:03:46;;;;;;;5.72;2.47;;;;;;;15.70;59.29;100645.28;5029639;28;20017;-62
2023/01/12 01:06:11;;;;;;;4.90;2.75;;;;;;;15.71;59.50;100641.75;5031913;28;20120;-62
2023/01/12 01:08:36;;;;;;;4.90;2.10;;;;;;;15.70;59.18;100634.75;5033631;28;20075;-62
2023/01/12 01:11:08;;;;;;;5.57;2.50;;;;;;;15.69;59.32;100627.75;5033273;28;20032;-62
2023/01/12 01:13:39;;;;;;;8.15;2.90;;;;;;;15.70;59.31;100630.31;5017635;28;20021;-62
2023/01/12 01:16:06;;;;;;;7.07;2.92;;;;;;;15.68;59.45;100615.47;5013700;28;20033;-62
2023/01/12 01:18:33;;;;;;;6.38;2.30;;;;;;;15.68;59.22;100610.19;5013498;28;20148;-62
2023/01/12 01:20:58;;;;;;;5.80;2.35;;;;;;;15.67;59.15;100611.09;5013401;28;20048;-62
2023/01/12 01:23:26;;;;;;;5.30;2.47;;;;;;;15.65;59.35;100597.13;5026725;28;20021;-62
2023/01/12 01:25:52;;;;;;;5.60;2.38;;;;;;;15.66;59.38;100606.75;5033177;28;20044;-62
2023/01/12 01:28:17;;;;;;;5.38;2.50;;;;;;;15.64;59.58;100603.28;5033132;28;20021;-62
2023/01/12 01:30:45;;;;;;;6.78;2.78;;;;;;;15.64;59.50;100595.41;5031556;28;20029;-62
2023/01/12 01:33:10;;;;;;;5.18;2.42;;;;;;;15.63;59.25;100605.03;5021460;28;20022;-62
2023/01/12 01:35:36;;;;;;;6.45;2.72;;;;;;;15.62;59.57;100605.94;5013307;28;20029;-62
2023/01/12 01:38:02;;;;;;;5.78;2.60;;;;;;;15.64;59.33;100611.19;5012795;28;20021;-62
2023/01/12 01:40:28;;;;;;;6.03;2.35;;;;;;;15.63;59.45;100601.53;5012556;28;20104;-62
2023/01/12 01:42:53;;;;;;;4.00;1.92;;;;;;;15.64;59.23;100604.13;5017569;28;20100;-62
2023/01/12 01:45:19;;;;;;;6.65;2.60;;;;;;;15.63;59.42;100610.31;5032325;28;20025;-62
2023/01/12 01:47:51;;;;;;;5.28;2.10;;;;;;;15.64;59.05;100603.28;5031604;28;20109;-62
2023/01/12 01:50:30;;;;;;;6.53;2.20;;;;;;;15.62;59.39;100605.94;5032443;28;20037;-62
2023/01/12 01:53:01;;;;;;;5.75;2.55;;;;;;;15.62;59.31;100597.19;5032043;28;20399;-62
2023/01/12 01:55:36;;;;;;;6.45;2.45;;;;;;;15.62;59.40;100599.81;5032388;28;20167;-62
2023/01/12 01:58:14;;;;;;;4.97;2.20;;;;;;;15.58;59.50;100593.75;5032327;28;20120;-62
2023/01/12 02:00:41;;;;;;;5.85;2.17;;;;;;;15.60;59.35;100591.09;5032664;28;20487;-62
2023/01/12 02:03:08;;;;;;;6.00;2.70;;;;;;;15.61;59.50;100595.44;5032092;28;20057;-62
2023/01/12 02:05:36;;;;;;;4.65;2.30;;;;;;;15.61;59.43;100604.22;5031948;28;20028;-62
2023/01/12 02:08:20;;;;;;;6.50;2.35;;;;;;;15.60;59.38;100601.59;5032252;28;20025;-62
2023/01/12 02:10:46;;;;;;;6.60;2.13;;;;;;;15.60;59.22;100599.84;5032330;28;20120;-62
2023/01/12 02:16:19;;;;;;;5.90;2.38;;;;;;;15.56;59.39;100601.66;5012357;28;20088;-62
2023/01/12 02:19:06;;;;;;;7.15;2.17;;;;;;;15.57;59.29;100608.69;5013024;28;20105;-62
2023/01/12 02:21:50;;;;;;;5.63;2.10;;;;;;;15.56;59.42;100606.91;5012854;28;20032;-62
2023/01/12 02:24:22;;;;;;;5.40;2.08;;;;;;;15.58;59.50;100604.25;5032088;28;20101;-62
2023/01/12 02:27:17;;;;;;;6.70;2.25;;;;;;;15.57;59.31;100603.41;5032049;28;20430;-62
2023/01/12 02:29:48;;;;;;;4.63;2.45;;;;;;;15.57;59.06;100607.81;5031734;28;20087;-62
2023/01/12 02:32:32;;;;;;;5.20;2.50;;;;;;;15.56;59.32;100601.66;5029294;28;20037;-62
2023/01/12 02:35:06;;;;;;;5.05;2.35;;;;;;;15.54;59.03;100598.19;5011828;28;20491;-62
2023/01/12 02:37:41;;;;;;;7.00;2.35;;;;;;;15.56;59.10;100595.53;5012243;28;20032;-62
2023/01/12 02:40:35;;;;;;;5.97;2.60;;;;;;;15.54;59.05;100598.19;5011792;28;20483;-62
2023/01/12 02:43:00;;;;;;;4.38;1.88;;;;;;;15.55;59.18;100605.19;5018453;28;20034;-62
2023/01/12 02:45:35;;;;;;;5.32;2.55;;;;;;;15.55;59.00;100605.19;5031612;28;20105;-62
2023/01/12 02:48:23;;;;;;;5.22;2.22;;;;;;;15.54;59.22;100598.19;5031487;28;20124;-62
2023/01/12 02:51:10;;;;;;;8.82;2.35;;;;;;;15.53;59.24;100591.22;5030744;28;20092;-62
2023/01/12 02:53:49;;;;;;;5.60;2.40;;;;;;;15.51;59.14;100587.75;5019970;28;20034;-62
2023/01/12 02:56:24;;;;;;;5.60;2.13;;;;;;;15.51;59.13;100587.75;5030822;28;20489;-62
2023/01/12 02:58:55;;;;;;;4.63;1.90;;;;;;;15.49;59.00;100579.00;5032521;28;20111;-61
2023/01/12 03:01:23;;;;;;;4.68;2.05;;;;;;;15.50;59.30;100580.72;5032100;28;20061;-61
2023/01/12 03:03:50;;;;;;;5.63;2.15;;;;;;;15.51;59.35;100581.63;5016191;28;20018;-62
2023/01/12 03:06:16;;;;;;;5.00;2.08;;;;;;;15.50;59.20;100580.72;5012624;28;20029;-62
2023/01/12 03:08:44;;;;;;;6.75;2.33;;;;;;;15.53;59.17;100569.28;5012731;28;20026;-62
2023/01/12 03:11:15;;;;;;;5.03;2.30;;;;;;;15.48;59.13;100574.66;5011369;28;20490;-62
2023/01/12 03:14:01;;;;;;;5.82;1.70;;;;;;;15.50;59.27;100580.72;5026113;28;20372;-61
2023/01/12 03:16:32;;;;;;;5.05;2.05;;;;;;;15.49;59.00;100584.28;5032179;28;20049;-61
2023/01/12 03:19:08;;;;;;;4.97;2.10;;;;;;;15.48;59.15;100592.19;5032765;28;20499;-62
2023/01/12 03:21:37;;;;;;;4.28;2.00;;;;;;;15.49;59.21;100581.63;5036247;28;20041;-60
2023/01/12 03:24:12;;;;;;;6.35;2.25;;;;;;;15.47;59.40;100593.97;5019681;28;20026;-62
2023/01/12 03:26:42;;;;;;;5.70;2.30;;;;;;;15.50;59.25;100591.25;5015894;28;20152;-62
2023/01/12 03:29:18;;;;;;;7.70;2.25;;;;;;;15.47;59.31;100591.34;5015981;28;20506;-62
2023/01/12 03:31:44;;;;;;;5.82;1.80;;;;;;;15.47;59.30;100601.84;5015715;28;20042;-60
2023/01/12 03:34:10;;;;;;;5.75;2.40;;;;;;;15.46;59.04;100594.88;5033168;28;20044;-62
2023/01/12 03:37:02;;;;;;;6.28;2.60;;;;;;;15.47;59.32;100596.59;5035991;28;20080;-61
2023/01/12 03:39:46;;;;;;;6.32;1.90;;;;;;;15.47;59.06;100596.59;5035900;28;20021;-62
2023/01/12 03:42:16;;;;;;;5.68;2.00;;;;;;;15.45;59.19;100590.47;5034473;28;20494;-62
2023/01/12 03:44:54;;;;;;;4.47;1.95;;;;;;;15.44;59.17;100594.00;5015640;28;20022;-62
2023/01/12 03:47:26;;;;;;;5.50;2.55;;;;;;;15.42;59.07;100593.19;5019822;28;20415;-62
2023/01/12 03:50:10;;;;;;;4.90;2.22;;;;;;;15.42;59.29;100593.19;5022947;28;20033;-62
2023/01/12 03:52:37;;;;;;;4.53;1.90;;;;;;;15.43;59.34;100594.91;5015247;28;20044;-62
2023/01/12 03:55:06;;;;;;;6.22;2.00;;;;;;;15.41;59.23;100583.56;5015904;28;20018;-61
2023/01/12 03:57:33;;;;;;;5.40;1.75;;;;;;;15.43;59.22;100579.13;5015305;28;20529;-63
2023/01/12 04:00:01;;;;;;;5.18;2.10;;;;;;;15.40;59.22;100568.69;5015621;28;20045;-62
2023/01/12 04:02:27;;;;;;;5.00;2.50;;;;;;;15.41;59.36;100559.91;5018883;28;20032;-62
2023/01/12 04:04:52;;;;;;;4.18;1.83;;;;;;;15.41;59.44;100559.91;5035373;28;20030;-62
2023/01/12 04:07:18;;;;;;;6.60;2.53;;;;;;;15.43;59.36;100558.09;5035327;28;20139;-62
2023/01/12 04:09:43;;;;;;;4.05;2.08;;;;;;;15.43;59.46;100568.63;5015778;28;20034;-62
2023/01/12 04:12:11;;;;;;;4.30;1.90;;;;;;;15.41;59.28;100565.16;5015212;28;20032;-61
2023/01/12 04:14:39;;;;;;;4.97;1.98;;;;;;;15.41;59.30;100552.00;5035134;28;20045;-62
2023/01/12 04:17:05;;;;;;;4.53;2.13;;;;;;;15.39;59.15;100559.03;5035293;28;20096;-62
2023/01/12 04:19:30;;;;;;;6.03;2.20;;;;;;;15.37;59.30;100559.09;5035284;28;20471;-60
2023/01/12 04:24:39;;;;;;;4.35;1.90;;;;;;;15.38;59.27;100565.19;5015349;28;20136;-62
2023/01/12 04:27:05;;;;;;;3.78;1.58;;;;;;;15.38;59.10;100583.63;5014947;28;20109;-62
2023/01/12 04:29:30;;;;;;;4.75;2.05;;;;;;;15.37;58.95;100589.78;5015555;28;20152;-62
2023/01/12 04:31:55;;;;;;;6.18;1.90;;;;;;;15.36;58.96;100588.03;5015579;28;20125;-61
2023/01/12 04:34:22;;;;;;;6.05;1.77;;;;;;;15.35;58.95;100586.31;5032893;28;20033;-62
2023/01/12 04:36:48;;;;;;;5.68;2.08;;;;;;;15.35;58.86;100581.06;5034960;28;20449;-62
2023/01/12 04:39:13;;;;;;;4.53;1.88;;;;;;;15.35;59.22;100581.91;5034822;28;20036;-62
2023/01/12 04:41:39;;;;;;;4.75;1.90;;;;;;;15.36;59.06;100577.53;5034361;28;20061;-62
2023/01/12 04:44:05;;;;;;;6.45;2.35;;;;;;;15.33;59.19;100578.44;5018693;28;20069;-62
2023/01/12 04:46:31;;;;;;;6.03;1.88;;;;;;;15.32;59.21;100581.97;5014452;28;20050;-62
2023/01/12 04:48:57;;;;;;;5.18;1.73;;;;;;;15.34;59.30;100581.97;5027809;28;20104;-62
2023/01/12 04:51:23;;;;;;;4.55;1.67;;;;;;;15.33;59.04;100580.19;5033052;28;20128;-62
2023/01/12 04:53:50;;;;;;;6.32;1.98;;;;;;;15.34;59.22;100584.59;5021249;28;20109;-61
2023/01/12 04:56:16;;;;;;;5.03;2.10;;;;;;;15.30;59.14;100579.38;5014160;28;20101;-62
2023/01/12 04:58:41;;;;;;;5.45;1.60;;;;;;;15.29;59.29;100567.13;5014596;28;20100;-62
2023/01/12 05:01:10;;;;;;;4.97;1.73;;;;;;;15.31;59.17;100567.09;5014791;28;20391;-61
2023/01/12 05:03:36;;;;;;;5.07;2.13;;;;;;;15.32;58.99;100555.69;5025300;28;20040;-62
2023/01/12 05:06:02;;;;;;;4.85;1.75;;;;;;;15.32;59.02;100554.81;5034008;28;20496;-62
2023/01/12 05:11:11;;;;;;;3.47;1.58;;;;;;;15.29;59.08;100556.59;5033989;28;20036;-62
2023/01/12 05:13:36;;;;;;;4.43;1.63;;;;;;;15.29;58.99;100567.13;5022896;28;20030;-62
2023/01/12 05:16:14;;;;;;;2.95;1.50;;;;;;;15.27;59.27;100568.91;5012950;28;20438;-62
2023/01/12 05:18:40;;;;;;;5.10;2.08;;;;;;;15.29;59.19;100567.13;5014395;28;20434;-62
2023/01/12 05:21:07;;;;;;;4.90;1.67;;;;;;;15.29;59.17;100572.38;5014254;28;20561;-62
2023/01/12 05:23:32;;;;;;;5.38;1.63;;;;;;;15.27;59.08;100558.38;5024399;28;20044;-61
2023/01/12 05:26:02;;;;;;;4.15;1.63;;;;;;;15.28;59.19;100561.88;5033456;28;20388;-62
2023/01/12 05:28:29;;;;;;;3.83;1.52;;;;;;;15.26;59.25;100566.31;5033736;28;20383;-62
2023/01/12 05:31:00;;;;;;;4.30;1.98;;;;;;;15.28;59.25;100575.91;5033740;28;20419;-61
2023/01/12 05:33:25;;;;;;;4.97;2.00;;;;;;;15.28;59.01;100569.78;5024382;28;20169;-61
2023/01/12 05:35:50;;;;;;;6.50;1.98;;;;;;;15.26;59.36;100558.44;5014008;28;20097;-62
2023/01/12 05:38:16;;;;;;;2.97;1.63;;;;;;;15.24;58.85;100558.47;5013789;28;20479;-62
2023/01/12 05:40:41;;;;;;;3.78;1.70;;;;;;;15.26;59.20;100566.31;5013500;28;20030;-62
2023/01/12 05:45:55;;;;;;;2.92;1.27;;;;;;;15.24;59.15;100568.97;5033643;28;20072;-62
2023/01/12 05:48:20;;;;;;;4.45;1.60;;;;;;;15.24;58.99;100568.09;5033301;28;20471;-62
2023/01/12 05:50:46;;;;;;;6.35;1.80;;;;;;;15.24;59.01;100579.50;5029962;28;20115;-62
2023/01/12 05:53:11;;;;;;;5.70;1.73;;;;;;;15.25;59.25;100581.22;5026416;28;20124;-62
2023/01/12 05:55:37;;;;;;;4.53;1.67;;;;;;;15.23;58.86;100583.03;5013317;28;20033;-61
2023/01/12 05:58:03;;;;;;;4.32;1.70;;;;;;;15.22;59.17;100581.31;5013657;28;20036;-61
2023/01/12 06:00:28;;;;;;;4.38;1.65;;;;;;;15.25;59.12;100583.84;5013442;28;20114;-62
2023/01/12 06:02:53;;;;;;;3.70;1.40;;;;;;;15.23;58.93;100588.28;5017916;28;20075;-61
2023/01/12 06:05:19;;;;;;;4.55;1.63;;;;;;;15.22;59.30;100590.94;5033076;28;20043;-61
2023/01/12 06:07:44;;;;;;;4.30;1.40;;;;;;;15.22;58.94;100583.94;5033240;28;20108;-62
2023/01/12 06:10:10;;;;;;;5.55;1.85;;;;;;;15.21;59.00;100581.31;5032721;28;20056;-62
2023/01/12 06:15:20;;;;;;;3.97;2.00;;;;;;;15.19;59.08;100581.34;5032990;28;20040;-62
2023/01/12 06:17:45;;;;;;;2.97;1.35;;;;;;;15.19;59.07;100577.84;5032982;28;20025;-62
2023/01/12 06:20:15;;;;;;;4.72;1.70;;;;;;;15.17;59.17;100577.88;5033047;28;20059;-61
2023/01/12 06:22:42;;;;;;;3.92;1.58;;;;;;;15.18;59.04;100558.56;5030276;28;20025;-62
2023/01/12 06:25:08;;;;;;;4.10;1.88;;;;;;;15.17;58.84;100567.38;5013159;28;20054;-60
2023/01/12 06:27:34;;;;;;;3.42;1.30;;;;;;;15.17;59.13;100562.09;5013073;28;20061;-61
2023/01/12 06:30:00;;;;;;;4.57;2.03;;;;;;;15.19;59.24;100562.94;5012925;28;20034;-65
2023/01/12 06:32:27;;;;;;;4.20;1.90;;;;;;;15.19;58.66;100560.31;5012055;28;20026;-62
2023/01/12 06:34:53;;;;;;;4.45;1.58;;;;;;;15.17;58.88;100564.75;5032727;28;20045;-61
2023/01/12 06:37:18;;;;;;;4.82;1.52;;;;;;;15.16;58.88;100566.50;5032817;28;20517;-61
2023/01/12 06:39:43;;;;;;;4.43;1.42;;;;;;;15.12;58.82;100567.44;5030407;28;20022;-62
2023/01/12 06:42:27;;;;;;;3.97;1.38;;;;;;;15.13;58.86;100570.94;5031926;28;20026;-62
2023/01/12 06:44:53;;;;;;;4.60;1.75;;;;;;;15.14;58.71;100570.03;5013347;28;20050;-62
2023/01/12 06:47:19;;;;;;;4.30;1.67;;;;;;;15.12;58.92;100556.06;5016843;28;20084;-62
2023/01/12 06:49:45;;;;;;;4.03;1.63;;;;;;;15.14;58.90;100552.50;5032519;28;20029;-61
2023/01/12 06:52:10;;;;;;;3.83;1.30;;;;;;;15.14;58.78;100547.25;5032228;28;20489;-61
2023/01/12 06:54:36;;;;;;;3.90;1.58;;;;;;;15.15;58.91;100556.00;5033997;28;20399;-61
2023/01/12 06:57:01;;;;;;;5.40;1.67;;;;;;;15.13;58.86;100560.44;5036597;28;20025;-61
2023/01/12 06:59:26;;;;;;;4.95;1.52;;;;;;;15.13;58.94;100555.16;5036474;28;20034;-62
2023/01/12 07:01:52;;;;;;;4.78;2.00;;;;;;;15.12;58.64;100554.28;5036693;28;20033;-62
2023/01/12 07:04:17;;;;;;;4.60;1.67;;;;;;;15.11;58.73;100552.56;5036409;28;20077;-62
2023/01/12 07:06:43;;;;;;;4.93;1.80;;;;;;;15.11;58.90;100549.06;5034747;28;20460;-62
2023/01/12 07:09:08;;;;;;;4.40;1.55;;;;;;;15.11;58.71;100554.34;5036473;28;20036;-62
2023/01/12 07:11:34;;;;;;;5.30;1.67;;;;;;;15.10;58.71;100549.94;5036209;28;20103;-61
2023/01/12 07:13:59;;;;;;;4.68;1.77;;;;;;;15.08;58.77;100557.88;5023803;28;20026;-63
2023/01/12 07:16:24;;;;;;;3.10;1.23;;;;;;;15.08;58.68;100562.25;5016575;28;20018;-62
2023/01/12 07:18:50;;;;;;;3.63;1.70;;;;;;;15.05;58.87;100559.72;5016475;28;20084;-62
2023/01/12 07:21:16;;;;;;;4.50;1.85;;;;;;;15.07;58.62;100560.53;5016093;28;20072;-62
2023/01/12 07:23:42;;;;;;;3.97;1.83;;;;;;;15.08;58.40;100562.25;5026088;28;20034;-62
2023/01/12 07:26:11;;;;;;;4.78;1.85;;;;;;;15.06;58.62;100558.81;5035967;28;20021;-62
2023/01/12 07:28:37;;;;;;;4.53;1.65;;;;;;;15.04;58.64;100561.47;5036043;28;20022;-61
2023/01/12 07:31:04;;;;;;;3.33;1.17;;;;;;;15.01;58.67;100569.41;5035784;28;20121;-62
2023/01/12 07:33:30;;;;;;;4.35;1.88;;;;;;;15.01;58.46;100567.63;5028024;28;20030;-62
2023/01/12 07:36:01;;;;;;;6.60;1.80;;;;;;;15.00;58.52;100562.41;5015864;28;20052;-62
2023/01/12 07:38:29;;;;;;;4.53;1.60;;;;;;;15.01;58.38;100557.13;5016154;28;20053;-62
2023/01/12 07:40:59;;;;;;;5.60;2.15;;;;;;;15.00;58.54;100550.13;5016299;28;20026;-61
2023/01/12 07:43:24;;;;;;;4.50;1.48;;;;;;;15.00;58.75;100539.63;5035298;28;20064;-61
2023/01/12 07:45:50;;;;;;;4.28;1.67;;;;;;;15.00;58.69;100538.75;5035608;28;20064;-62
2023/01/12 07:48:15;;;;;;;4.53;1.60;;;;;;;14.99;58.76;100530.00;5035538;28;20441;-62
2023/01/12 07:50:41;;;;;;;4.18;2.00;;;;;;;14.99;58.46;100524.75;5035217;28;20554;-61
2023/01/12 07:53:07;;;;;;;4.82;2.15;;;;;;;14.98;58.67;100533.53;5032141;28;20029;-62
2023/01/12 07:55:32;;;;;;;4.00;1.88;;;;;;;14.98;58.56;100535.28;5035427;28;20068;-61
2023/01/12 07:58:02;;;;;;;4.22;1.50;;;;;;;14.96;58.56;100537.94;5032723;28;20041;-61
2023/01/12 08:00:28;;;;;;;3.75;1.25;;;;;;;14.98;58.64;100528.28;5015563;28;20033;-62
2023/01/12 08:03:01;;;;;;;3.08;1.50;;;;;;;14.96;58.60;100537.94;5015701;28;20033;-62
2023/01/12 08:05:27;;;;;;;4.93;1.58;;;;;;;14.95;58.66;100530.97;5014819;28;20025;-61
2023/01/12 08:07:52;;;;;;;4.43;1.65;;;;;;;14.96;58.44;100542.34;5015514;28;20030;-62
2023/01/12 08:10:17;;;;;;;6.20;2.10;;;;;;;14.94;58.48;100534.47;5021254;28;20433;-62
2023/01/12 08:12:43;;;;;;;4.60;2.10;;;;;;;14.95;58.45;100536.22;5035024;28;20025;-61
2023/01/12 08:15:11;;;;;;;3.65;1.60;;;;;;;14.96;58.57;100537.94;5034913;28;20022;-62
2023/01/12 08:17:45;;;;;;;5.28;1.55;;;;;;;14.94;58.73;100537.13;5035305;28;20052;-62
2023/01/12 08:20:17;;;;;;;7.30;1.83;;;;;;;14.95;58.64;100525.69;5034946;28;20387;-62
2023/01/12 08:22:46;;;;;;;4.43;1.80;;;;;;;14.94;58.48;100529.22;5035257;28;20026;-62
2023/01/12 08:25:17;;;;;;;3.97;1.70;;;;;;;14.94;58.57;100523.97;5034882;28;20029;-61
2023/01/12 08:27:46;;;;;;;6.65;1.90;;;;;;;14.94;58.65;100531.84;5035088;28;20104;-62
2023/01/12 08:30:15;;;;;;;5.22;1.80;;;;;;;14.95;58.52;100525.69;5034861;28;20034;-62
2023/01/12 08:32:41;;;;;;;5.13;2.42;;;;;;;14.92;58.40;100531.03;5034905;28;20018;-62
2023/01/12 08:35:08;;;;;;;4.68;1.60;;;;;;;14.92;58.59;100528.41;5034672;28;20029;-62
2023/01/12 08:37:33;;;;;;;5.25;1.80;;;;;;;14.91;58.67;100534.53;5034720;28;20032;-62
2023/01/12 08:39:59;;;;;;;4.28;2.10;;;;;;;14.89;58.41;100542.47;5034713;28;20101;-62
2023/01/12 08:42:26;;;;;;;5.10;2.03;;;;;;;14.93;58.40;100543.28;5034767;28;20060;-67
2023/01/12 08:44:53;;;;;;;4.25;1.83;;;;;;;14.93;58.40;100543.28;5034501;28;20025;-62
2023/01/12 08:47:27;;;;;;;5.32;1.88;;;;;;;14.92;58.52;100538.91;5034667;28;20041;-62
2023/01/12 08:49:57;;;;;;;4.22;2.10;;;;;;;14.90;58.35;100535.44;5034464;28;20109;-62
2023/01/12 08:52:24;;;;;;;4.63;1.80;;;;;;;14.91;58.53;100545.03;5034595;28;20037;-62
2023/01/12 08:54:49;;;;;;;4.80;2.45;;;;;;;14.89;58.18;100550.34;5034415;28;20018;-62
2023/01/12 08:57:15;;;;;;;5.15;1.85;;;;;;;14.91;58.52;100550.28;5034588;28;20510;-62
2023/01/12 08:59:41;;;;;;;3.35;1.60;;;;;;;14.89;58.51;100549.47;5034394;28;20383;-63
2023/01/12 09:02:10;;;;;;;5.78;2.20;;;;;;;14.89;58.39;100546.84;5034029;28;20029;-62
2023/01/12 09:04:38;;;;;;;4.38;1.80;;;;;;;14.88;58.57;100545.13;5034154;28;20053;-61
2023/01/12 09:07:04;;;;;;;5.97;2.28;;;;;;;14.88;58.49;100538.06;5033999;28;20048;-62
2023/01/12 09:09:29;;;;;;;5.40;2.22;;;;;;;14.89;58.70;100531.06;5034243;28;20030;-61
2023/01/12 09:11:55;;;;;;;4.13;1.83;;;;;;;14.88;58.48;100524.94;5033961;28;20033;-61
2023/01/12 09:14:20;;;;;;;4.93;2.00;;;;;;;14.88;58.51;100531.97;5034170;28;20014;-60
2023/01/12 09:16:46;;;;;;;5.00;2.38;;;;;;;14.88;58.59;100532.81;5032980;28;20029;-62
2023/01/12 09:19:11;;;;;;;4.32;2.00;;;;;;;14.88;58.49;100540.69;5034064;28;20056;-62
2023/01/12 09:21:39;;;;;;;5.15;2.10;;;;;;;14.87;58.36;100527.63;5033962;28;20033;-62
2023/01/12 09:24:05;;;;;;;3.28;1.73;;;;;;;14.86;58.68;100531.09;5033882;28;20022;-62
2023/01/12 09:26:36;;;;;;;5.60;2.10;;;;;;;14.86;58.66;100526.75;5034014;28;20087;-62
2023/01/12 09:29:03;;;;;;;3.70;1.90;;;;;;;14.88;58.35;100545.97;5021938;28;20065;-62
2023/01/12 09:31:30;;;;;;;5.22;2.03;;;;;;;14.87;58.62;100543.38;5013584;28;20495;-62
2023/01/12 09:33:56;;;;;;;5.20;2.00;;;;;;;14.88;58.66;100545.97;5014015;28;20484;-62
2023/01/12 09:36:24;;;;;;;4.22;2.10;;;;;;;14.87;58.43;100546.00;5013912;28;20395;-62
2023/01/12 09:38:50;;;;;;;4.78;2.35;;;;;;;14.88;58.69;100540.69;5013922;28;20030;-62
2023/01/12 09:46:57;;;;;;;6.35;2.35;;;;;;;14.89;58.68;100546.84;5013904;28;20029;-62
2023/01/12 09:47:20;;;;;;;4.55;2.08;;;;;;;14.86;58.38;100545.13;5015604;28;20056;-62
2023/01/12 09:50:15;;;;;;;6.03;2.00;;;;;;;14.88;58.59;100542.47;5025138;28;20021;-62
2023/01/12 09:52:51;;;;;;;4.28;2.10;;;;;;;14.86;58.89;100539.88;5025646;28;20159;-62
2023/01/12 09:55:20;;;;;;;5.30;2.80;;;;;;;14.85;58.51;100545.16;5033309;28;20029;-62
2023/01/12 09:58:13;;;;;;;4.32;2.28;;;;;;;14.85;58.45;100551.28;5032032;28;20025;-62
2023/01/12 10:00:38;;;;;;;5.55;2.45;;;;;;;14.86;58.76;100562.66;5032957;28;20031;-61
2023/01/12 10:03:37;;;;;;;6.93;2.83;;;;;;;14.87;58.67;100564.41;5020727;28;20045;-62
2023/01/12 10:06:04;;;;;;;5.57;2.60;;;;;;;14.85;58.63;100563.53;5013328;28;20034;-62
2023/01/12 10:08:41;;;;;;;4.70;2.45;;;;;;;14.86;58.35;100573.16;5013507;28;20045;-62
2023/01/12 10:11:24;;;;;;;6.55;2.53;;;;;;;14.87;58.42;100564.41;5013303;28;20029;-62
2023/01/12 10:13:52;;;;;;;3.95;2.10;;;;;;;14.86;58.44;100570.53;5013338;28;20018;-62
2023/01/12 10:16:46;;;;;;;5.22;2.28;;;;;;;14.87;58.54;100564.41;5012974;28;20029;-62
2023/01/12 10:19:26;;;;;;;5.90;2.60;;;;;;;14.86;58.35;100568.78;5010813;28;20428;-62
2023/01/12 10:21:52;;;;;;;6.05;2.30;;;;;;;14.85;58.53;100567.06;5013250;28;20441;-62
2023/01/12 10:24:22;;;;;;;5.13;2.20;;;;;;;14.87;58.40;100559.16;5020513;28;20025;-61
2023/01/12 10:26:55;;;;;;;4.90;2.80;;;;;;;14.88;58.43;100556.47;5032856;28;20029;-62
2023/01/12 10:29:21;;;;;;;4.43;2.67;;;;;;;14.89;58.70;100546.84;5032289;28;20407;-62
2023/01/12 10:31:46;;;;;;;5.78;2.92;;;;;;;14.88;58.61;100551.22;5032736;28;20039;-63
2023/01/12 10:34:12;;;;;;;5.57;2.75;;;;;;;14.87;58.45;100540.75;5032766;28;20029;-62
2023/01/12 10:36:48;;;;;;;5.43;2.28;;;;;;;14.87;58.62;100548.63;5032844;28;20025;-62
2023/01/12 10:39:34;;;;;;;8.15;2.65;;;;;;;14.88;58.51;100537.22;5032705;28;20029;-62
2023/01/12 10:43:17;;;;;;;5.25;2.35;;;;;;;14.88;58.46;100529.34;5017615;28;20076;-62
2023/01/12 10:45:15;;;;;;;;;;;;;;;14.86;58.43;100524.09;5012779;28;20546;-62
2023/01/12 10:47:42;;;;;;;5.63;2.63;;;;;;;14.87;58.37;100517.09;5019602;28;19924;-62
2023/01/12 10:50:25;;;;;;;5.03;2.58;;;;;;;14.86;58.58;100510.97;5032559;28;20479;-62
2023/01/12 10:53:10;;;;;;;5.68;2.30;;;;;;;14.88;58.50;100503.91;5033161;28;20117;-62
2023/01/12 10:55:39;;;;;;;5.53;2.33;;;;;;;14.86;58.57;100510.09;5033087;28;20083;-61
2023/01/12 10:58:15;;;;;;;5.90;2.65;;;;;;;14.87;58.55;100501.34;5032115;28;20075;-62
2023/01/12 11:00:47;;;;;;;5.18;2.33;;;;;;;14.89;58.36;100489.03;5032523;28;20033;-62
2023/01/12 11:03:42;;;;;;;5.45;2.47;;;;;;;14.89;58.40;100499.53;5032412;28;20032;-61
2023/01/12 11:06:33;;;;;;;5.40;2.10;;;;;;;14.88;58.56;100492.56;5019322;28;20048;-61
2023/01/12 11:09:17;;;;;;;6.13;2.80;;;;;;;14.90;58.55;100485.50;5009775;28;20059;-62
2023/01/12 11:11:42;;;;;;;3.50;2.15;;;;;;;14.90;58.42;100477.59;5012760;28;20053;-62
2023/01/12 11:14:22;;;;;;;5.32;2.13;;;;;;;14.90;58.39;100474.97;5012420;28;20057;-61
2023/01/12 11:16:50;;;;;;;4.40;2.05;;;;;;;14.92;58.61;100478.47;5012604;28;20037;-62
2023/01/12 11:19:33;;;;;;;4.50;2.20;;;;;;;14.91;58.44;100460.94;5012468;28;20030;-62
2023/01/12 11:22:16;;;;;;;6.07;2.70;;;;;;;14.91;58.48;100460.94;5012634;28;20026;-62
2023/01/12 11:24:46;;;;;;;4.82;2.47;;;;;;;14.89;58.39;100458.38;5012542;28;20022;-62
2023/01/12 11:27:28;;;;;;;3.92;2.00;;;;;;;14.92;58.18;100446.94;5012171;28;20487;-61
2023/01/12 11:30:03;;;;;;;7.40;2.40;;;;;;;14.93;58.54;100442.53;5031374;28;20379;-61
2023/01/12 11:32:42;;;;;;;4.72;2.33;;;;;;;14.94;58.45;100436.38;5032144;28;20029;-61
2023/01/12 11:35:22;;;;;;;3.92;1.83;;;;;;;14.93;58.51;100432.88;5032128;28;20022;-62
2023/01/12 11:37:51;;;;;;;3.90;2.03;;;;;;;14.90;58.45;100440.81;5030933;28;20030;-62
2023/01/12 11:40:32;;;;;;;5.70;2.75;;;;;;;14.93;58.44;100442.53;5032971;28;20029;-62
2023/01/12 11:46:25;;;;;;;5.18;2.50;;;;;;;14.94;58.37;100428.47;5035807;28;20537;-61
2023/01/12 11:49:00;;;;;;;4.20;2.13;;;;;;;14.92;58.50;100425.91;4955389;28;20524;-62
2023/01/12 11:51:26;;;;;;;6.28;2.80;;;;;;;14.93;58.57;100416.25;4955323;29;20035;-61
2023/01/12 11:53:52;;;;;;;7.40;2.83;;;;;;;14.95;58.51;100415.31;4955392;29;20035;-61
2023/01/12 11:56:35;;;;;;;6.00;2.97;;;;;;;14.97;58.56;100403.00;4955006;29;20519;-62
2023/01/12 12:00:02;;;;;;;5.43;2.55;;;;;;;14.97;58.25;100397.72;4955465;29;20074;-61
2023/01/12 12:02:54;;;;;;;6.32;3.13;;;;;;;14.96;58.62;100385.50;4898065;29;20479;-61
2023/01/12 12:05:28;;;;;;;6.57;3.10;;;;;;;14.98;58.32;100378.47;4860547;29;20065;-62